sensor_id;sensor_type;location;lat;lon;timestamp;P1;durP1;ratioP1;P2;durP2;ratioP2
18947;SDS011;9607;51.600;7.558;2022-10-15T00:00:22;8.07;;;7.28;;
18947;SDS011;9607;51.600;7.558;2022-10-15T00:02:49;7.50;;;6.70;;
18947;SDS011;9607;51.600;7.558;2022-10-15T00:05:16;7.10;;;6.40;;
18947;SDS011;9607;51.600;7.558;2022-10-15T00:07:43;7.65;;;6.85;;
18947;SDS011;9607;51.600;7.558;2022-10-15T00:10:12;7.85;;;7.07;;
18947;SDS011;9607;51.600;7.558;2022-10-15T00:12:39;8.25;;;7.45;;
18947;SDS011;9607;51.600;7.558;2022-10-15T00:15:06;7.55;;;6.85;;
18947;SDS011;9607;51.600;7.558;2022-10-15T00:17:35;6.82;;;6.20;;
18947;SDS011;9607;51.600;7.558;2022-10-15T00:20:02;7.18;;;6.47;;
18947;SDS011;9607;51.600;7.558;2022-10-15T00:22:31;9.77;;;8.65;;
18947;SDS011;9607;51.600;7.558;2022-10-15T00:24:58;10.35;;;9.25;;
18947;SDS011;9607;51.600;7.558;2022-10-15T00:27:26;9.60;;;8.45;;
18947;SDS011;9607;51.600;7.558;2022-10-15T00:29:53;7.63;;;6.93;;
18947;SDS011;9607;51.600;7.558;2022-10-15T00:32:20;7.13;;;6.38;;
18947;SDS011;9607;51.600;7.558;2022-10-15T00:34:47;7.22;;;6.55;;
18947;SDS011;9607;51.600;7.558;2022-10-15T00:37:14;6.65;;;6.05;;
18947;SDS011;9607;51.600;7.558;2022-10-15T00:39:41;6.25;;;5.65;;
18947;SDS011;9607;51.600;7.558;2022-10-15T00:42:09;8.40;;;7.60;;
18947;SDS011;9607;51.600;7.558;2022-10-15T00:44:51;7.25;;;6.55;;
18947;SDS011;9607;51.600;7.558;2022-10-15T00:47:22;6.13;;;5.53;;
18947;SDS011;9607;51.600;7.558;2022-10-15T00:49:54;7.40;;;6.70;;
18947;SDS011;9607;51.600;7.558;2022-10-15T00:52:25;7.32;;;6.25;;
18947;SDS011;9607;51.600;7.558;2022-10-15T00:54:58;16.95;;;12.10;;
18947;SDS011;9607;51.600;7.558;2022-10-15T00:57:30;10.60;;;9.50;;
18947;SDS011;9607;51.600;7.558;2022-10-15T01:00:02;9.65;;;8.73;;
18947;SDS011;9607;51.600;7.558;2022-10-15T01:02:31;14.68;;;11.32;;
18947;SDS011;9607;51.600;7.558;2022-10-15T01:04:58;12.98;;;11.40;;
18947;SDS011;9607;51.600;7.558;2022-10-15T01:07:25;9.35;;;8.45;;
18947;SDS011;9607;51.600;7.558;2022-10-15T01:09:52;10.70;;;9.60;;
18947;SDS011;9607;51.600;7.558;2022-10-15T01:12:22;8.95;;;8.05;;
18947;SDS011;9607;51.600;7.558;2022-10-15T01:15:00;8.35;;;7.55;;
18947;SDS011;9607;51.600;7.558;2022-10-15T01:17:35;12.40;;;11.10;;
18947;SDS011;9607;51.600;7.558;2022-10-15T01:23:13;8.63;;;7.82;;
18947;SDS011;9607;51.600;7.558;2022-10-15T01:26:00;8.98;;;8.05;;
18947;SDS011;9607;51.600;7.558;2022-10-15T01:28:46;8.90;;;8.00;;
18947;SDS011;9607;51.600;7.558;2022-10-15T01:31:23;7.47;;;6.78;;
18947;SDS011;9607;51.600;7.558;2022-10-15T01:34:00;7.75;;;7.00;;
18947;SDS011;9607;51.600;7.558;2022-10-15T01:36:31;6.82;;;6.18;;
18947;SDS011;9607;51.600;7.558;2022-10-15T01:39:03;6.63;;;6.00;;
18947;SDS011;9607;51.600;7.558;2022-10-15T01:41:38;6.40;;;5.80;;
18947;SDS011;9607;51.600;7.558;2022-10-15T01:44:10;6.30;;;5.70;;
18947;SDS011;9607;51.600;7.558;2022-10-15T01:46:43;6.10;;;5.55;;
18947;SDS011;9607;51.600;7.558;2022-10-15T01:49:13;6.30;;;5.70;;
18947;SDS011;9607;51.600;7.558;2022-10-15T01:51:45;5.78;;;5.25;;
18947;SDS011;9607;51.600;7.558;2022-10-15T01:54:16;9.93;;;8.05;;
18947;SDS011;9607;51.600;7.558;2022-10-15T01:56:44;7.25;;;6.55;;
18947;SDS011;9607;51.600;7.558;2022-10-15T01:59:14;6.68;;;5.97;;
18947;SDS011;9607;51.600;7.558;2022-10-15T02:01:44;8.13;;;7.32;;
18947;SDS011;9607;51.600;7.558;2022-10-15T02:04:16;7.90;;;7.10;;
18947;SDS011;9607;51.600;7.558;2022-10-15T02:06:45;8.40;;;7.60;;
18947;SDS011;9607;51.600;7.558;2022-10-15T02:09:15;8.27;;;7.47;;
18947;SDS011;9607;51.600;7.558;2022-10-15T02:11:55;9.00;;;8.10;;
18947;SDS011;9607;51.600;7.558;2022-10-15T02:14:32;10.63;;;8.88;;
18947;SDS011;9607;51.600;7.558;2022-10-15T02:17:09;12.95;;;10.93;;
18947;SDS011;9607;51.600;7.558;2022-10-15T02:19:39;12.63;;;11.25;;
18947;SDS011;9607;51.600;7.558;2022-10-15T02:22:11;10.98;;;8.95;;
18947;SDS011;9607;51.600;7.558;2022-10-15T02:24:42;16.10;;;12.93;;
18947;SDS011;9607;51.600;7.558;2022-10-15T02:27:15;10.55;;;9.27;;
18947;SDS011;9607;51.600;7.558;2022-10-15T02:29:44;14.20;;;9.88;;
18947;SDS011;9607;51.600;7.558;2022-10-15T02:32:16;12.82;;;11.00;;
18947;SDS011;9607;51.600;7.558;2022-10-15T02:34:46;11.70;;;10.50;;
18947;SDS011;9607;51.600;7.558;2022-10-15T02:37:15;19.52;;;14.07;;
18947;SDS011;9607;51.600;7.558;2022-10-15T02:39:45;20.38;;;14.43;;
18947;SDS011;9607;51.600;7.558;2022-10-15T02:42:13;17.67;;;12.73;;
18947;SDS011;9607;51.600;7.558;2022-10-15T02:44:40;13.98;;;11.25;;
18947;SDS011;9607;51.600;7.558;2022-10-15T02:47:07;15.00;;;11.25;;
18947;SDS011;9607;51.600;7.558;2022-10-15T02:49:36;14.40;;;11.02;;
18947;SDS011;9607;51.600;7.558;2022-10-15T02:52:03;16.38;;;12.25;;
18947;SDS011;9607;51.600;7.558;2022-10-15T02:54:31;14.18;;;10.95;;
18947;SDS011;9607;51.600;7.558;2022-10-15T02:56:58;15.68;;;11.13;;
18947;SDS011;9607;51.600;7.558;2022-10-15T02:59:25;11.00;;;9.25;;
18947;SDS011;9607;51.600;7.558;2022-10-15T03:01:52;11.27;;;9.48;;
18947;SDS011;9607;51.600;7.558;2022-10-15T03:04:19;15.00;;;10.98;;
18947;SDS011;9607;51.600;7.558;2022-10-15T03:06:47;12.73;;;10.32;;
18947;SDS011;9607;51.600;7.558;2022-10-15T03:09:14;13.82;;;10.65;;
18947;SDS011;9607;51.600;7.558;2022-10-15T03:11:41;12.02;;;10.00;;
18947;SDS011;9607;51.600;7.558;2022-10-15T03:14:08;13.40;;;10.57;;
18947;SDS011;9607;51.600;7.558;2022-10-15T03:16:35;12.60;;;9.63;;
18947;SDS011;9607;51.600;7.558;2022-10-15T03:19:02;18.58;;;13.15;;
18947;SDS011;9607;51.600;7.558;2022-10-15T03:21:29;14.95;;;10.90;;
18947;SDS011;9607;51.600;7.558;2022-10-15T03:23:57;15.30;;;12.82;;
18947;SDS011;9607;51.600;7.558;2022-10-15T03:26:24;13.93;;;11.05;;
18947;SDS011;9607;51.600;7.558;2022-10-15T03:28:51;23.98;;;16.05;;
18947;SDS011;9607;51.600;7.558;2022-10-15T03:31:18;15.30;;;11.52;;
18947;SDS011;9607;51.600;7.558;2022-10-15T03:33:45;14.43;;;11.00;;
18947;SDS011;9607;51.600;7.558;2022-10-15T03:36:11;15.73;;;10.85;;
18947;SDS011;9607;51.600;7.558;2022-10-15T03:38:38;12.73;;;9.18;;
18947;SDS011;9607;51.600;7.558;2022-10-15T03:41:07;18.50;;;13.85;;
18947;SDS011;9607;51.600;7.558;2022-10-15T03:43:33;26.58;;;17.10;;
18947;SDS011;9607;51.600;7.558;2022-10-15T03:46:00;17.98;;;12.85;;
18947;SDS011;9607;51.600;7.558;2022-10-15T03:48:28;40.20;;;22.10;;
18947;SDS011;9607;51.600;7.558;2022-10-15T03:50:55;31.35;;;19.88;;
18947;SDS011;9607;51.600;7.558;2022-10-15T03:53:22;28.95;;;18.15;;
18947;SDS011;9607;51.600;7.558;2022-10-15T03:55:49;29.98;;;17.48;;
18947;SDS011;9607;51.600;7.558;2022-10-15T03:58:17;27.23;;;17.50;;
18947;SDS011;9607;51.600;7.558;2022-10-15T04:00:44;21.38;;;15.02;;
18947;SDS011;9607;51.600;7.558;2022-10-15T04:03:11;19.40;;;12.98;;
18947;SDS011;9607;51.600;7.558;2022-10-15T04:05:39;17.13;;;12.40;;
18947;SDS011;9607;51.600;7.558;2022-10-15T04:08:06;17.83;;;12.10;;
18947;SDS011;9607;51.600;7.558;2022-10-15T04:10:33;16.33;;;12.02;;
18947;SDS011;9607;51.600;7.558;2022-10-15T04:13:01;14.98;;;10.15;;
18947;SDS011;9607;51.600;7.558;2022-10-15T04:15:30;16.27;;;11.23;;
18947;SDS011;9607;51.600;7.558;2022-10-15T04:17:56;17.00;;;11.27;;
18947;SDS011;9607;51.600;7.558;2022-10-15T04:20:23;16.98;;;11.32;;
18947;SDS011;9607;51.600;7.558;2022-10-15T04:22:50;14.48;;;10.68;;
18947;SDS011;9607;51.600;7.558;2022-10-15T04:25:17;16.55;;;10.68;;
18947;SDS011;9607;51.600;7.558;2022-10-15T04:27:44;16.65;;;10.98;;
18947;SDS011;9607;51.600;7.558;2022-10-15T04:30:11;17.42;;;11.55;;
18947;SDS011;9607;51.600;7.558;2022-10-15T04:32:40;14.88;;;10.88;;
18947;SDS011;9607;51.600;7.558;2022-10-15T04:35:07;14.02;;;10.18;;
18947;SDS011;9607;51.600;7.558;2022-10-15T04:37:34;15.90;;;10.30;;
18947;SDS011;9607;51.600;7.558;2022-10-15T04:40:02;12.88;;;9.77;;
18947;SDS011;9607;51.600;7.558;2022-10-15T04:42:30;12.48;;;8.75;;
18947;SDS011;9607;51.600;7.558;2022-10-15T04:44:57;12.20;;;9.13;;
18947;SDS011;9607;51.600;7.558;2022-10-15T04:47:23;13.05;;;8.75;;
18947;SDS011;9607;51.600;7.558;2022-10-15T04:49:52;12.57;;;8.77;;
18947;SDS011;9607;51.600;7.558;2022-10-15T04:52:18;12.85;;;8.70;;
18947;SDS011;9607;51.600;7.558;2022-10-15T04:54:45;16.70;;;11.45;;
18947;SDS011;9607;51.600;7.558;2022-10-15T04:57:12;14.20;;;10.05;;
18947;SDS011;9607;51.600;7.558;2022-10-15T04:59:39;15.85;;;10.23;;
18947;SDS011;9607;51.600;7.558;2022-10-15T05:02:09;11.35;;;8.77;;
18947;SDS011;9607;51.600;7.558;2022-10-15T05:04:36;12.85;;;9.15;;
18947;SDS011;9607;51.600;7.558;2022-10-15T05:07:05;12.40;;;9.40;;
18947;SDS011;9607;51.600;7.558;2022-10-15T05:09:31;11.27;;;8.50;;
18947;SDS011;9607;51.600;7.558;2022-10-15T05:11:58;10.95;;;8.18;;
18947;SDS011;9607;51.600;7.558;2022-10-15T05:14:25;11.25;;;8.35;;
18947;SDS011;9607;51.600;7.558;2022-10-15T05:16:52;11.50;;;8.05;;
18947;SDS011;9607;51.600;7.558;2022-10-15T05:19:19;10.82;;;7.93;;
18947;SDS011;9607;51.600;7.558;2022-10-15T05:21:46;9.27;;;7.32;;
18947;SDS011;9607;51.600;7.558;2022-10-15T05:24:14;11.25;;;8.40;;
18947;SDS011;9607;51.600;7.558;2022-10-15T05:26:41;10.23;;;8.07;;
18947;SDS011;9607;51.600;7.558;2022-10-15T05:29:08;9.00;;;7.82;;
18947;SDS011;9607;51.600;7.558;2022-10-15T05:31:35;8.35;;;6.53;;
18947;SDS011;9607;51.600;7.558;2022-10-15T05:34:04;8.60;;;7.15;;
18947;SDS011;9607;51.600;7.558;2022-10-15T05:36:32;9.57;;;7.70;;
18947;SDS011;9607;51.600;7.558;2022-10-15T05:39:01;9.45;;;7.80;;
18947;SDS011;9607;51.600;7.558;2022-10-15T05:41:32;8.25;;;7.25;;
18947;SDS011;9607;51.600;7.558;2022-10-15T05:43:59;9.60;;;7.75;;
18947;SDS011;9607;51.600;7.558;2022-10-15T05:46:26;9.60;;;7.72;;
18947;SDS011;9607;51.600;7.558;2022-10-15T05:48:54;10.90;;;8.23;;
18947;SDS011;9607;51.600;7.558;2022-10-15T05:51:23;9.50;;;7.95;;
18947;SDS011;9607;51.600;7.558;2022-10-15T05:53:51;10.02;;;8.25;;
18947;SDS011;9607;51.600;7.558;2022-10-15T05:56:18;10.73;;;8.75;;
18947;SDS011;9607;51.600;7.558;2022-10-15T05:58:47;10.43;;;8.43;;
18947;SDS011;9607;51.600;7.558;2022-10-15T06:01:14;8.43;;;7.47;;
18947;SDS011;9607;51.600;7.558;2022-10-15T06:03:41;12.73;;;10.25;;
18947;SDS011;9607;51.600;7.558;2022-10-15T06:06:12;11.48;;;9.02;;
18947;SDS011;9607;51.600;7.558;2022-10-15T06:08:40;10.65;;;8.40;;
18947;SDS011;9607;51.600;7.558;2022-10-15T06:11:07;14.63;;;11.30;;
18947;SDS011;9607;51.600;7.558;2022-10-15T06:13:34;11.18;;;9.88;;
18947;SDS011;9607;51.600;7.558;2022-10-15T06:16:03;16.15;;;12.95;;
18947;SDS011;9607;51.600;7.558;2022-10-15T06:18:31;15.20;;;11.40;;
18947;SDS011;9607;51.600;7.558;2022-10-15T06:20:58;13.98;;;10.80;;
18947;SDS011;9607;51.600;7.558;2022-10-15T06:23:24;13.23;;;10.55;;
18947;SDS011;9607;51.600;7.558;2022-10-15T06:25:51;13.93;;;10.23;;
18947;SDS011;9607;51.600;7.558;2022-10-15T06:28:18;12.50;;;9.70;;
18947;SDS011;9607;51.600;7.558;2022-10-15T06:30:45;13.30;;;9.60;;
18947;SDS011;9607;51.600;7.558;2022-10-15T06:33:13;13.98;;;10.25;;
18947;SDS011;9607;51.600;7.558;2022-10-15T06:35:41;13.95;;;10.13;;
18947;SDS011;9607;51.600;7.558;2022-10-15T06:38:08;13.88;;;10.55;;
18947;SDS011;9607;51.600;7.558;2022-10-15T06:40:36;13.38;;;10.40;;
18947;SDS011;9607;51.600;7.558;2022-10-15T06:43:03;12.00;;;9.07;;
18947;SDS011;9607;51.600;7.558;2022-10-15T06:45:32;10.10;;;8.73;;
18947;SDS011;9607;51.600;7.558;2022-10-15T06:48:00;10.73;;;8.27;;
18947;SDS011;9607;51.600;7.558;2022-10-15T06:50:29;10.38;;;8.30;;
18947;SDS011;9607;51.600;7.558;2022-10-15T06:52:56;11.27;;;8.32;;
18947;SDS011;9607;51.600;7.558;2022-10-15T06:55:23;12.13;;;9.68;;
18947;SDS011;9607;51.600;7.558;2022-10-15T06:57:53;12.10;;;9.80;;
18947;SDS011;9607;51.600;7.558;2022-10-15T07:00:20;12.85;;;10.00;;
18947;SDS011;9607;51.600;7.558;2022-10-15T07:02:47;15.75;;;12.07;;
18947;SDS011;9607;51.600;7.558;2022-10-15T07:05:14;13.02;;;10.40;;
18947;SDS011;9607;51.600;7.558;2022-10-15T07:07:43;17.80;;;13.18;;
18947;SDS011;9607;51.600;7.558;2022-10-15T07:10:16;18.30;;;13.20;;
18947;SDS011;9607;51.600;7.558;2022-10-15T07:12:43;25.85;;;18.33;;
18947;SDS011;9607;51.600;7.558;2022-10-15T07:15:10;17.75;;;12.75;;
18947;SDS011;9607;51.600;7.558;2022-10-15T07:17:37;13.70;;;10.30;;
18947;SDS011;9607;51.600;7.558;2022-10-15T07:20:05;14.35;;;11.15;;
18947;SDS011;9607;51.600;7.558;2022-10-15T07:22:32;18.10;;;13.68;;
18947;SDS011;9607;51.600;7.558;2022-10-15T07:25:01;20.58;;;14.40;;
18947;SDS011;9607;51.600;7.558;2022-10-15T07:27:28;17.73;;;13.02;;
18947;SDS011;9607;51.600;7.558;2022-10-15T07:29:54;18.67;;;12.85;;
18947;SDS011;9607;51.600;7.558;2022-10-15T07:32:21;23.13;;;15.40;;
18947;SDS011;9607;51.600;7.558;2022-10-15T07:34:48;16.83;;;13.02;;
18947;SDS011;9607;51.600;7.558;2022-10-15T07:37:15;17.30;;;12.75;;
18947;SDS011;9607;51.600;7.558;2022-10-15T07:39:42;17.45;;;13.20;;
18947;SDS011;9607;51.600;7.558;2022-10-15T07:42:10;20.38;;;14.23;;
18947;SDS011;9607;51.600;7.558;2022-10-15T07:44:37;15.65;;;11.95;;
18947;SDS011;9607;51.600;7.558;2022-10-15T07:47:04;15.90;;;12.18;;
18947;SDS011;9607;51.600;7.558;2022-10-15T07:49:32;13.45;;;10.80;;
18947;SDS011;9607;51.600;7.558;2022-10-15T07:51:59;19.98;;;14.43;;
18947;SDS011;9607;51.600;7.558;2022-10-15T07:54:25;15.07;;;12.00;;
18947;SDS011;9607;51.600;7.558;2022-10-15T07:56:52;14.63;;;12.02;;
18947;SDS011;9607;51.600;7.558;2022-10-15T07:59:21;14.77;;;11.85;;
18947;SDS011;9607;51.600;7.558;2022-10-15T08:01:48;13.45;;;10.95;;
18947;SDS011;9607;51.600;7.558;2022-10-15T08:04:15;13.10;;;10.25;;
18947;SDS011;9607;51.600;7.558;2022-10-15T08:06:42;16.27;;;10.73;;
18947;SDS011;9607;51.600;7.558;2022-10-15T08:09:09;13.93;;;11.55;;
18947;SDS011;9607;51.600;7.558;2022-10-15T08:11:36;18.25;;;13.30;;
18947;SDS011;9607;51.600;7.558;2022-10-15T08:14:03;19.73;;;14.50;;
18947;SDS011;9607;51.600;7.558;2022-10-15T08:16:31;17.02;;;13.45;;
18947;SDS011;9607;51.600;7.558;2022-10-15T08:18:58;14.55;;;12.07;;
18947;SDS011;9607;51.600;7.558;2022-10-15T08:21:25;15.57;;;12.35;;
18947;SDS011;9607;51.600;7.558;2022-10-15T08:23:52;14.52;;;12.05;;
18947;SDS011;9607;51.600;7.558;2022-10-15T08:26:19;19.48;;;14.27;;
18947;SDS011;9607;51.600;7.558;2022-10-15T08:28:45;16.02;;;13.77;;
18947;SDS011;9607;51.600;7.558;2022-10-15T08:31:13;18.63;;;14.82;;
18947;SDS011;9607;51.600;7.558;2022-10-15T08:33:41;15.40;;;12.75;;
18947;SDS011;9607;51.600;7.558;2022-10-15T08:36:10;14.15;;;12.63;;
18947;SDS011;9607;51.600;7.558;2022-10-15T08:38:37;13.25;;;11.63;;
18947;SDS011;9607;51.600;7.558;2022-10-15T08:41:04;16.15;;;12.27;;
18947;SDS011;9607;51.600;7.558;2022-10-15T08:43:39;19.35;;;15.18;;
18947;SDS011;9607;51.600;7.558;2022-10-15T08:46:10;17.08;;;13.95;;
18947;SDS011;9607;51.600;7.558;2022-10-15T08:48:43;17.60;;;14.60;;
18947;SDS011;9607;51.600;7.558;2022-10-15T08:51:15;19.70;;;15.15;;
18947;SDS011;9607;51.600;7.558;2022-10-15T08:53:45;17.20;;;15.20;;
18947;SDS011;9607;51.600;7.558;2022-10-15T08:56:16;18.73;;;15.48;;
18947;SDS011;9607;51.600;7.558;2022-10-15T08:58:48;16.08;;;12.68;;
18947;SDS011;9607;51.600;7.558;2022-10-15T09:01:22;16.10;;;13.30;;
18947;SDS011;9607;51.600;7.558;2022-10-15T09:04:00;14.23;;;12.52;;
18947;SDS011;9607;51.600;7.558;2022-10-15T09:06:38;13.75;;;12.35;;
18947;SDS011;9607;51.600;7.558;2022-10-15T09:09:07;13.88;;;11.80;;
18947;SDS011;9607;51.600;7.558;2022-10-15T09:11:46;12.35;;;11.15;;
18947;SDS011;9607;51.600;7.558;2022-10-15T09:14:23;12.27;;;10.95;;
18947;SDS011;9607;51.600;7.558;2022-10-15T09:16:53;14.20;;;12.70;;
18947;SDS011;9607;51.600;7.558;2022-10-15T09:19:22;12.45;;;11.10;;
18947;SDS011;9607;51.600;7.558;2022-10-15T09:21:51;11.60;;;9.68;;
18947;SDS011;9607;51.600;7.558;2022-10-15T09:24:19;10.07;;;9.00;;
18947;SDS011;9607;51.600;7.558;2022-10-15T09:26:50;10.63;;;9.52;;
18947;SDS011;9607;51.600;7.558;2022-10-15T09:29:26;10.63;;;9.52;;
18947;SDS011;9607;51.600;7.558;2022-10-15T09:31:58;8.63;;;7.78;;
18947;SDS011;9607;51.600;7.558;2022-10-15T09:34:34;10.65;;;9.55;;
18947;SDS011;9607;51.600;7.558;2022-10-15T09:37:10;11.65;;;10.07;;
18947;SDS011;9607;51.600;7.558;2022-10-15T09:39:45;9.50;;;8.60;;
18947;SDS011;9607;51.600;7.558;2022-10-15T09:42:30;8.20;;;7.40;;
18947;SDS011;9607;51.600;7.558;2022-10-15T09:45:01;9.20;;;8.30;;
18947;SDS011;9607;51.600;7.558;2022-10-15T09:47:31;9.55;;;8.13;;
18947;SDS011;9607;51.600;7.558;2022-10-15T09:50:00;8.60;;;7.80;;
18947;SDS011;9607;51.600;7.558;2022-10-15T09:52:32;9.40;;;8.10;;
18947;SDS011;9607;51.600;7.558;2022-10-15T09:55:15;7.80;;;7.07;;
18947;SDS011;9607;51.600;7.558;2022-10-15T09:57:57;7.65;;;6.95;;
18947;SDS011;9607;51.600;7.558;2022-10-15T10:00:41;6.95;;;6.25;;
18947;SDS011;9607;51.600;7.558;2022-10-15T10:03:20;8.07;;;7.28;;
18947;SDS011;9607;51.600;7.558;2022-10-15T10:05:49;6.97;;;6.07;;
18947;SDS011;9607;51.600;7.558;2022-10-15T10:08:17;7.00;;;5.88;;
18947;SDS011;9607;51.600;7.558;2022-10-15T10:10:52;5.05;;;4.65;;
18947;SDS011;9607;51.600;7.558;2022-10-15T10:13:21;4.80;;;4.30;;
18947;SDS011;9607;51.600;7.558;2022-10-15T10:15:50;4.00;;;3.70;;
18947;SDS011;9607;51.600;7.558;2022-10-15T10:18:19;4.20;;;3.60;;
18947;SDS011;9607;51.600;7.558;2022-10-15T10:20:53;4.47;;;3.42;;
18947;SDS011;9607;51.600;7.558;2022-10-15T10:23:23;5.85;;;2.80;;
18947;SDS011;9607;51.600;7.558;2022-10-15T10:25:55;2.67;;;2.47;;
18947;SDS011;9607;51.600;7.558;2022-10-15T10:28:25;2.17;;;2.08;;
18947;SDS011;9607;51.600;7.558;2022-10-15T10:30:59;1.90;;;1.80;;
18947;SDS011;9607;51.600;7.558;2022-10-15T10:33:29;2.10;;;1.65;;
18947;SDS011;9607;51.600;7.558;2022-10-15T10:36:01;1.60;;;1.50;;
18947;SDS011;9607;51.600;7.558;2022-10-15T10:38:31;1.60;;;1.38;;
18947;SDS011;9607;51.600;7.558;2022-10-15T10:41:00;2.30;;;1.20;;
18947;SDS011;9607;51.600;7.558;2022-10-15T10:43:32;1.60;;;1.50;;
18947;SDS011;9607;51.600;7.558;2022-10-15T10:46:00;1.73;;;1.40;;
18947;SDS011;9607;51.600;7.558;2022-10-15T10:48:36;1.20;;;1.10;;
18947;SDS011;9607;51.600;7.558;2022-10-15T10:51:07;1.25;;;1.15;;
18947;SDS011;9607;51.600;7.558;2022-10-15T10:53:39;0.77;;;0.75;;
18947;SDS011;9607;51.600;7.558;2022-10-15T10:56:13;1.58;;;0.80;;
18947;SDS011;9607;51.600;7.558;2022-10-15T10:58:43;0.50;;;0.50;;
18947;SDS011;9607;51.600;7.558;2022-10-15T11:01:10;0.80;;;0.70;;
18947;SDS011;9607;51.600;7.558;2022-10-15T11:03:38;0.55;;;0.55;;
18947;SDS011;9607;51.600;7.558;2022-10-15T11:06:15;0.85;;;0.52;;
18947;SDS011;9607;51.600;7.558;2022-10-15T11:09:20;0.90;;;0.40;;
18947;SDS011;9607;51.600;7.558;2022-10-15T11:12:10;0.52;;;0.50;;
18947;SDS011;9607;51.600;7.558;2022-10-15T11:14:51;0.40;;;0.40;;
18947;SDS011;9607;51.600;7.558;2022-10-15T11:17:23;0.82;;;0.40;;
18947;SDS011;9607;51.600;7.558;2022-10-15T11:19:58;0.30;;;0.30;;
18947;SDS011;9607;51.600;7.558;2022-10-15T11:22:50;0.30;;;0.30;;
18947;SDS011;9607;51.600;7.558;2022-10-15T11:25:27;0.85;;;0.50;;
18947;SDS011;9607;51.600;7.558;2022-10-15T11:28:06;0.68;;;0.43;;
18947;SDS011;9607;51.600;7.558;2022-10-15T11:30:48;0.57;;;0.50;;
18947;SDS011;9607;51.600;7.558;2022-10-15T11:33:25;0.50;;;0.50;;
18947;SDS011;9607;51.600;7.558;2022-10-15T11:36:03;0.95;;;0.50;;
18947;SDS011;9607;51.600;7.558;2022-10-15T11:38:50;0.50;;;0.50;;
18947;SDS011;9607;51.600;7.558;2022-10-15T11:41:28;0.70;;;0.70;;
18947;SDS011;9607;51.600;7.558;2022-10-15T11:44:20;0.95;;;0.93;;
18947;SDS011;9607;51.600;7.558;2022-10-15T11:47:00;0.30;;;0.30;;
18947;SDS011;9607;51.600;7.558;2022-10-15T11:49:37;0.32;;;0.32;;
18947;SDS011;9607;51.600;7.558;2022-10-15T11:52:19;0.30;;;0.30;;
18947;SDS011;9607;51.600;7.558;2022-10-15T11:54:59;0.50;;;0.40;;
18947;SDS011;9607;51.600;7.558;2022-10-15T11:57:29;2.55;;;0.60;;
18947;SDS011;9607;51.600;7.558;2022-10-15T12:00:00;0.57;;;0.43;;
18947;SDS011;9607;51.600;7.558;2022-10-15T12:02:32;0.52;;;0.43;;
18947;SDS011;9607;51.600;7.558;2022-10-15T12:05:03;0.30;;;0.30;;
18947;SDS011;9607;51.600;7.558;2022-10-15T12:07:33;0.63;;;0.47;;
18947;SDS011;9607;51.600;7.558;2022-10-15T12:10:08;0.60;;;0.60;;
18947;SDS011;9607;51.600;7.558;2022-10-15T12:12:52;0.50;;;0.40;;
18947;SDS011;9607;51.600;7.558;2022-10-15T12:15:26;0.60;;;0.60;;
18947;SDS011;9607;51.600;7.558;2022-10-15T12:18:00;0.35;;;0.35;;
18947;SDS011;9607;51.600;7.558;2022-10-15T12:20:35;1.05;;;0.52;;
18947;SDS011;9607;51.600;7.558;2022-10-15T12:23:17;1.38;;;0.50;;
18947;SDS011;9607;51.600;7.558;2022-10-15T12:25:53;0.73;;;0.40;;
18947;SDS011;9607;51.600;7.558;2022-10-15T12:28:20;0.30;;;0.30;;
18947;SDS011;9607;51.600;7.558;2022-10-15T12:30:52;0.60;;;0.60;;
18947;SDS011;9607;51.600;7.558;2022-10-15T12:33:31;0.50;;;0.50;;
18947;SDS011;9607;51.600;7.558;2022-10-15T12:36:01;0.47;;;0.43;;
18947;SDS011;9607;51.600;7.558;2022-10-15T12:38:33;2.08;;;0.47;;
18947;SDS011;9607;51.600;7.558;2022-10-15T12:41:06;1.95;;;0.40;;
18947;SDS011;9607;51.600;7.558;2022-10-15T12:43:35;0.80;;;0.50;;
18947;SDS011;9607;51.600;7.558;2022-10-15T12:46:07;0.20;;;0.20;;
18947;SDS011;9607;51.600;7.558;2022-10-15T12:48:36;2.17;;;0.40;;
18947;SDS011;9607;51.600;7.558;2022-10-15T12:57:49;0.60;;;0.40;;
18947;SDS011;9607;51.600;7.558;2022-10-15T13:00:29;0.30;;;0.30;;
18947;SDS011;9607;51.600;7.558;2022-10-15T13:06:14;1.75;;;0.47;;
18947;SDS011;9607;51.600;7.558;2022-10-15T13:08:51;0.68;;;0.63;;
18947;SDS011;9607;51.600;7.558;2022-10-15T13:11:21;1.00;;;0.50;;
18947;SDS011;9607;51.600;7.558;2022-10-15T13:13:53;0.40;;;0.40;;
18947;SDS011;9607;51.600;7.558;2022-10-15T13:16:26;1.42;;;0.50;;
18947;SDS011;9607;51.600;7.558;2022-10-15T13:18:54;1.17;;;0.30;;
18947;SDS011;9607;51.600;7.558;2022-10-15T13:21:23;1.38;;;0.50;;
18947;SDS011;9607;51.600;7.558;2022-10-15T13:24:15;0.50;;;0.40;;
18947;SDS011;9607;51.600;7.558;2022-10-15T13:26:43;0.43;;;0.38;;
18947;SDS011;9607;51.600;7.558;2022-10-15T13:29:13;0.50;;;0.50;;
18947;SDS011;9607;51.600;7.558;2022-10-15T13:31:41;0.45;;;0.40;;
18947;SDS011;9607;51.600;7.558;2022-10-15T13:34:11;1.83;;;0.60;;
18947;SDS011;9607;51.600;7.558;2022-10-15T13:36:44;0.93;;;0.50;;
18947;SDS011;9607;51.600;7.558;2022-10-15T13:39:19;1.48;;;0.40;;
18947;SDS011;9607;51.600;7.558;2022-10-15T13:41:52;1.65;;;0.38;;
18947;SDS011;9607;51.600;7.558;2022-10-15T13:44:29;0.57;;;0.57;;
18947;SDS011;9607;51.600;7.558;2022-10-15T13:46:56;0.43;;;0.40;;
18947;SDS011;9607;51.600;7.558;2022-10-15T13:49:23;0.60;;;0.38;;
18947;SDS011;9607;51.600;7.558;2022-10-15T13:51:50;0.20;;;0.20;;
18947;SDS011;9607;51.600;7.558;2022-10-15T13:54:19;1.27;;;0.40;;
18947;SDS011;9607;51.600;7.558;2022-10-15T13:56:49;0.75;;;0.40;;
18947;SDS011;9607;51.600;7.558;2022-10-15T13:59:20;0.88;;;0.70;;
18947;SDS011;9607;51.600;7.558;2022-10-15T14:01:50;0.32;;;0.32;;
18947;SDS011;9607;51.600;7.558;2022-10-15T14:04:20;0.50;;;0.40;;
18947;SDS011;9607;51.600;7.558;2022-10-15T14:06:51;1.60;;;0.52;;
18947;SDS011;9607;51.600;7.558;2022-10-15T14:09:24;0.70;;;0.50;;
18947;SDS011;9607;51.600;7.558;2022-10-15T14:11:55;1.60;;;0.52;;
18947;SDS011;9607;51.600;7.558;2022-10-15T14:14:26;1.63;;;0.50;;
18947;SDS011;9607;51.600;7.558;2022-10-15T14:16:56;0.88;;;0.50;;
18947;SDS011;9607;51.600;7.558;2022-10-15T14:19:25;0.47;;;0.43;;
18947;SDS011;9607;51.600;7.558;2022-10-15T14:21:55;0.50;;;0.50;;
18947;SDS011;9607;51.600;7.558;2022-10-15T14:24:25;0.40;;;0.40;;
18947;SDS011;9607;51.600;7.558;2022-10-15T14:26:59;0.63;;;0.40;;
18947;SDS011;9607;51.600;7.558;2022-10-15T14:29:35;0.30;;;0.30;;
18947;SDS011;9607;51.600;7.558;2022-10-15T14:32:22;0.47;;;0.47;;
18947;SDS011;9607;51.600;7.558;2022-10-15T14:34:51;0.50;;;0.50;;
18947;SDS011;9607;51.600;7.558;2022-10-15T14:37:30;0.40;;;0.40;;
18947;SDS011;9607;51.600;7.558;2022-10-15T14:40:10;0.63;;;0.50;;
18947;SDS011;9607;51.600;7.558;2022-10-15T14:42:40;1.25;;;0.73;;
18947;SDS011;9607;51.600;7.558;2022-10-15T14:45:11;0.50;;;0.50;;
18947;SDS011;9607;51.600;7.558;2022-10-15T14:47:46;0.65;;;0.43;;
18947;SDS011;9607;51.600;7.558;2022-10-15T14:50:14;2.10;;;0.52;;
18947;SDS011;9607;51.600;7.558;2022-10-15T14:52:43;0.40;;;0.40;;
18947;SDS011;9607;51.600;7.558;2022-10-15T14:55:13;0.40;;;0.40;;
18947;SDS011;9607;51.600;7.558;2022-10-15T14:57:44;0.95;;;0.50;;
18947;SDS011;9607;51.600;7.558;2022-10-15T15:00:13;0.47;;;0.40;;
18947;SDS011;9607;51.600;7.558;2022-10-15T15:02:47;0.40;;;0.40;;
18947;SDS011;9607;51.600;7.558;2022-10-15T15:05:21;1.02;;;0.50;;
18947;SDS011;9607;51.600;7.558;2022-10-15T15:07:49;0.40;;;0.40;;
18947;SDS011;9607;51.600;7.558;2022-10-15T15:10:16;0.30;;;0.30;;
18947;SDS011;9607;51.600;7.558;2022-10-15T15:12:45;1.15;;;0.70;;
18947;SDS011;9607;51.600;7.558;2022-10-15T15:15:16;1.13;;;0.80;;
18947;SDS011;9607;51.600;7.558;2022-10-15T15:17:44;1.90;;;1.30;;
18947;SDS011;9607;51.600;7.558;2022-10-15T15:20:14;1.02;;;0.93;;
18947;SDS011;9607;51.600;7.558;2022-10-15T15:22:44;0.95;;;0.90;;